createdAt,value
2023-04-30T00:00:22.023Z,95092.00
2023-04-30T00:01:22.025Z,95088.00
2023-04-30T00:02:22.100Z,95090.00
2023-04-30T00:03:22.067Z,95090.00
2023-04-30T00:04:22.081Z,95088.00
2023-04-30T00:05:22.017Z,95088.00
2023-04-30T00:06:22.113Z,95090.00
2023-04-30T00:07:22.053Z,95090.00
2023-04-30T00:08:22.109Z,95090.00
2023-04-30T00:09:22.097Z,95094.00
2023-04-30T00:10:22.102Z,95094.00
2023-04-30T00:11:22.114Z,95096.00
2023-04-30T00:12:22.109Z,95098.00
2023-04-30T00:13:22.200Z,95102.00
2023-04-30T00:14:22.177Z,95098.00
2023-04-30T00:15:22.179Z,95104.00
2023-04-30T00:16:22.326Z,95102.00
2023-04-30T00:17:22.201Z,95102.00
2023-04-30T00:18:22.238Z,95104.00
2023-04-30T00:19:22.226Z,95104.00
2023-04-30T00:20:22.233Z,95104.00
2023-04-30T00:21:22.223Z,95106.00
2023-04-30T00:22:22.232Z,95104.00
2023-04-30T00:23:22.268Z,95104.00
2023-04-30T00:24:22.349Z,95106.00
2023-04-30T00:25:22.291Z,95106.00
2023-04-30T00:26:22.340Z,95110.00
2023-04-30T00:27:22.337Z,95108.00
2023-04-30T00:28:22.383Z,95108.00
2023-04-30T00:29:22.362Z,95104.00
2023-04-30T00:30:22.401Z,95106.00
2023-04-30T00:31:22.417Z,95106.00
2023-04-30T00:32:22.547Z,95104.00
2023-04-30T00:33:22.510Z,95104.00
2023-04-30T00:34:22.467Z,95100.00
2023-04-30T00:35:22.530Z,95100.00
2023-04-30T00:36:22.513Z,95100.00
2023-04-30T00:37:22.604Z,95104.00
2023-04-30T00:38:22.605Z,95102.00
2023-04-30T00:39:22.634Z,95102.00
2023-04-30T00:40:22.675Z,95102.00
2023-04-30T00:41:22.643Z,95100.00
2023-04-30T00:42:22.673Z,95104.00
2023-04-30T00:43:22.691Z,95102.00
2023-04-30T00:44:22.694Z,95102.00
2023-04-30T00:45:22.724Z,95104.00
2023-04-30T00:46:23.003Z,95106.00
2023-04-30T00:47:22.855Z,95108.00
2023-04-30T00:48:22.830Z,95108.00
2023-04-30T00:49:22.784Z,95108.00
2023-04-30T00:50:22.828Z,95110.00
2023-04-30T00:51:22.839Z,95106.00
2023-04-30T00:52:22.879Z,95106.00
2023-04-30T00:53:22.887Z,95108.00
2023-04-30T00:54:22.879Z,95106.00
2023-04-30T00:55:22.931Z,95106.00
2023-04-30T00:56:22.943Z,95102.00
2023-04-30T00:57:22.953Z,95104.00
2023-04-30T00:58:22.991Z,95106.00
2023-04-30T00:59:22.982Z,95104.00
2023-04-30T01:00:23.002Z,95102.00
2023-04-30T01:01:23.054Z,95102.00
2023-04-30T01:02:23.052Z,95102.00
2023-04-30T01:03:23.135Z,95098.00
2023-04-30T01:04:23.033Z,95098.00
2023-04-30T01:05:23.115Z,95100.00
2023-04-30T01:06:23.158Z,95098.00
2023-04-30T01:07:23.136Z,95098.00
2023-04-30T01:08:23.121Z,95094.00
2023-04-30T01:09:23.126Z,95092.00
2023-04-30T01:10:23.189Z,95094.00
2023-04-30T01:11:23.196Z,95088.00
2023-04-30T01:12:23.218Z,95088.00
2023-04-30T01:13:23.218Z,95087.00
2023-04-30T01:14:23.229Z,95087.00
2023-04-30T01:15:23.258Z,95088.00
2023-04-30T01:16:23.408Z,95092.00
2023-04-30T01:17:23.317Z,95090.00
2023-04-30T01:18:23.398Z,95092.00
2023-04-30T01:19:23.322Z,95092.00
2023-04-30T01:20:23.333Z,95094.00
2023-04-30T01:21:23.408Z,95092.00
2023-04-30T01:22:23.415Z,95096.00
2023-04-30T01:23:23.412Z,95094.00
2023-04-30T01:24:23.490Z,95096.00
2023-04-30T01:25:23.461Z,95098.00
2023-04-30T01:26:23.505Z,95096.00
2023-04-30T01:27:23.488Z,95100.00
2023-04-30T01:28:23.485Z,95100.00
2023-04-30T01:29:23.516Z,95102.00
2023-04-30T01:30:23.507Z,95102.00
2023-04-30T01:31:23.589Z,95102.00
2023-04-30T01:32:23.492Z,95100.00
2023-04-30T01:33:23.517Z,95104.00
2023-04-30T01:34:23.459Z,95104.00
2023-04-30T01:35:23.474Z,95102.00
2023-04-30T01:36:23.448Z,95100.00
2023-04-30T01:37:23.500Z,95098.00
2023-04-30T01:38:23.494Z,95098.00
2023-04-30T01:39:23.503Z,95094.00
2023-04-30T01:40:23.484Z,95096.00
2023-04-30T01:41:23.508Z,95102.00
2023-04-30T01:42:23.534Z,95098.00
2023-04-30T01:43:23.530Z,95098.00
2023-04-30T01:44:23.532Z,95100.00
2023-04-30T01:45:23.534Z,95102.00
2023-04-30T01:46:23.528Z,95100.00
2023-04-30T01:47:23.563Z,95102.00
2023-04-30T01:48:23.514Z,95102.00
2023-04-30T01:49:23.515Z,95104.00
2023-04-30T01:50:23.553Z,95104.00
2023-04-30T01:51:23.580Z,95106.00
2023-04-30T01:52:23.561Z,95106.00
2023-04-30T01:53:23.604Z,95110.00
2023-04-30T01:54:23.563Z,95110.00
2023-04-30T01:55:23.547Z,95106.00
2023-04-30T01:56:23.598Z,95108.00
2023-04-30T01:57:23.591Z,95106.00
2023-04-30T01:58:23.615Z,95106.00
2023-04-30T01:59:23.647Z,95106.00
2023-04-30T02:00:23.624Z,95104.00
2023-04-30T02:01:23.703Z,95106.00
2023-04-30T02:02:23.731Z,95104.00
2023-04-30T02:03:23.768Z,95102.00
2023-04-30T02:04:23.706Z,95104.00
2023-04-30T02:05:23.731Z,95104.00
2023-04-30T02:06:23.786Z,95104.00
2023-04-30T02:07:23.735Z,95104.00
2023-04-30T02:08:23.733Z,95102.00
2023-04-30T02:09:23.739Z,95104.00
2023-04-30T02:10:23.710Z,95104.00
2023-04-30T02:11:23.756Z,95106.00
2023-04-30T02:12:23.745Z,95106.00
2023-04-30T02:13:23.768Z,95106.00
2023-04-30T02:14:23.754Z,95108.00
2023-04-30T02:15:23.788Z,95106.00
2023-04-30T02:16:23.880Z,95106.00
2023-04-30T02:17:24.390Z,95106.00
2023-04-30T02:18:23.863Z,95106.00
2023-04-30T02:19:23.797Z,95104.00
2023-04-30T02:20:23.817Z,95106.00
2023-04-30T02:21:23.832Z,95106.00
2023-04-30T02:22:23.873Z,95108.00
2023-04-30T02:23:23.874Z,95106.00
2023-04-30T02:24:23.906Z,95108.00
2023-04-30T02:25:23.988Z,95110.00
2023-04-30T02:26:23.934Z,95110.00
2023-04-30T02:27:23.983Z,95114.00
2023-04-30T02:28:23.998Z,95114.00
2023-04-30T02:29:23.993Z,95112.00
2023-04-30T02:30:23.982Z,95114.00
2023-04-30T02:31:24.034Z,95118.00
2023-04-30T02:32:24.085Z,95118.00
2023-04-30T02:33:24.089Z,95120.00
2023-04-30T02:34:24.106Z,95120.00
2023-04-30T02:35:24.110Z,95118.00
2023-04-30T02:36:24.121Z,95118.00
2023-04-30T02:37:24.186Z,95118.00
2023-04-30T02:38:24.170Z,95120.00
2023-04-30T02:39:24.220Z,95120.00
2023-04-30T02:40:24.205Z,95116.00
2023-04-30T02:41:24.316Z,95116.00
2023-04-30T02:42:24.258Z,95116.00
2023-04-30T02:43:24.285Z,95116.00
2023-04-30T02:44:24.315Z,95114.00
2023-04-30T02:45:24.409Z,95112.00
2023-04-30T02:46:24.626Z,95112.00
2023-04-30T02:47:24.390Z,95114.00
2023-04-30T02:48:24.316Z,95112.00
2023-04-30T02:49:24.330Z,95110.00
2023-04-30T02:50:24.347Z,95110.00
2023-04-30T02:51:24.358Z,95110.00
2023-04-30T02:52:24.386Z,95110.00
2023-04-30T02:53:24.433Z,95108.00
2023-04-30T02:54:24.451Z,95106.00
2023-04-30T02:55:24.495Z,95104.00
2023-04-30T02:56:24.489Z,95106.00
2023-04-30T02:57:24.539Z,95106.00
2023-04-30T02:58:24.551Z,95106.00
2023-04-30T02:59:24.584Z,95104.00
2023-04-30T03:00:24.594Z,95104.00
2023-04-30T03:01:24.594Z,95106.00
2023-04-30T03:02:24.585Z,95104.00
2023-04-30T03:03:24.643Z,95102.00
2023-04-30T03:04:24.613Z,95102.00
2023-04-30T03:05:24.575Z,95104.00
2023-04-30T03:06:24.650Z,95108.00
2023-04-30T03:07:24.587Z,95106.00
2023-04-30T03:08:24.615Z,95108.00
2023-04-30T03:09:24.618Z,95110.00
2023-04-30T03:10:24.675Z,95108.00
2023-04-30T03:11:24.643Z,95110.00
2023-04-30T03:12:24.671Z,95112.00
2023-04-30T03:13:24.720Z,95112.00
2023-04-30T03:14:24.681Z,95114.00
2023-04-30T03:15:24.719Z,95112.00
2023-04-30T03:16:24.808Z,95112.00
2023-04-30T03:17:24.790Z,95110.00
2023-04-30T03:18:24.802Z,95112.00
2023-04-30T03:19:24.835Z,95110.00
2023-04-30T03:20:24.857Z,95110.00
2023-04-30T03:21:24.819Z,95110.00
2023-04-30T03:22:24.873Z,95110.00
2023-04-30T03:23:24.897Z,95104.00
2023-04-30T03:24:24.902Z,95106.00
2023-04-30T03:25:24.928Z,95106.00
2023-04-30T03:26:24.961Z,95106.00
2023-04-30T03:27:24.962Z,95102.00
2023-04-30T03:28:25.013Z,95106.00
2023-04-30T03:29:24.982Z,95104.00
2023-04-30T03:30:25.015Z,95104.00
2023-04-30T03:31:25.018Z,95108.00
2023-04-30T03:32:25.024Z,95108.00
2023-04-30T03:33:25.044Z,95106.00
2023-04-30T03:34:25.049Z,95108.00
2023-04-30T03:35:25.048Z,95108.00
2023-04-30T03:36:25.045Z,95106.00
2023-04-30T03:37:25.043Z,95106.00
2023-04-30T03:38:25.069Z,95102.00
2023-04-30T03:39:25.097Z,95102.00
2023-04-30T03:40:25.111Z,95100.00
2023-04-30T03:41:25.119Z,95100.00
2023-04-30T03:42:25.129Z,95100.00
2023-04-30T03:43:25.151Z,95094.00
2023-04-30T03:44:25.149Z,95094.00
2023-04-30T03:45:25.201Z,95092.00
2023-04-30T03:46:25.215Z,95094.00
2023-04-30T03:47:25.244Z,95094.00
2023-04-30T03:48:25.257Z,95094.00
2023-04-30T03:49:25.288Z,95098.00
2023-04-30T03:50:25.272Z,95104.00
2023-04-30T03:51:25.251Z,95102.00
2023-04-30T03:52:25.304Z,95104.00
2023-04-30T03:53:25.313Z,95106.00
2023-04-30T03:54:25.337Z,95108.00
2023-04-30T03:55:25.335Z,95110.00
2023-04-30T03:56:25.393Z,95114.00
2023-04-30T03:57:25.410Z,95116.00
2023-04-30T03:58:25.440Z,95118.00
2023-04-30T03:59:25.482Z,95118.00
2023-04-30T04:00:25.474Z,95118.00
2023-04-30T04:01:25.452Z,95114.00
2023-04-30T04:02:25.551Z,95114.00
2023-04-30T04:03:25.505Z,95112.00
2023-04-30T04:04:25.609Z,95116.00
2023-04-30T04:05:25.556Z,95112.00
2023-04-30T04:06:25.594Z,95110.00
2023-04-30T04:07:25.588Z,95110.00
2023-04-30T04:08:25.584Z,95112.00
2023-04-30T04:09:25.622Z,95110.00
2023-04-30T04:10:25.669Z,95112.00
2023-04-30T04:11:25.635Z,95112.00
2023-04-30T04:12:25.678Z,95110.00
2023-04-30T04:13:25.678Z,95112.00
2023-04-30T04:14:25.674Z,95112.00
2023-04-30T04:15:25.714Z,95110.00
2023-04-30T04:16:25.799Z,95110.00
2023-04-30T04:17:25.771Z,95108.00
2023-04-30T04:18:25.805Z,95110.00
2023-04-30T04:19:25.777Z,95108.00
2023-04-30T04:20:25.785Z,95110.00
2023-04-30T04:21:25.864Z,95110.00
2023-04-30T04:22:25.848Z,95108.00
2023-04-30T04:23:25.868Z,95110.00
2023-04-30T04:24:25.879Z,95110.00
2023-04-30T04:25:25.900Z,95114.00
2023-04-30T04:26:25.860Z,95112.00
2023-04-30T04:27:25.899Z,95110.00
2023-04-30T04:28:25.949Z,95114.00
2023-04-30T04:29:25.953Z,95112.00
2023-04-30T04:30:25.966Z,95112.00
2023-04-30T04:31:26.031Z,95110.00
2023-04-30T04:32:26.091Z,95112.00
2023-04-30T04:33:26.048Z,95112.00
2023-04-30T04:34:26.075Z,95108.00
2023-04-30T04:35:26.212Z,95110.00
2023-04-30T04:36:26.146Z,95112.00
2023-04-30T04:37:26.171Z,95110.00
2023-04-30T04:38:26.183Z,95114.00
2023-04-30T04:39:26.197Z,95112.00
2023-04-30T04:40:26.251Z,95112.00
2023-04-30T04:41:26.275Z,95112.00
2023-04-30T04:42:26.307Z,95112.00
2023-04-30T04:43:26.301Z,95112.00
2023-04-30T04:44:26.326Z,95112.00
2023-04-30T04:45:26.379Z,95112.00
2023-04-30T04:46:26.463Z,95112.00
2023-04-30T04:47:26.425Z,95112.00
2023-04-30T04:48:26.436Z,95110.00
2023-04-30T04:49:26.444Z,95112.00
2023-04-30T04:50:26.443Z,95114.00
2023-04-30T04:51:26.462Z,95110.00
2023-04-30T04:52:26.454Z,95114.00
2023-04-30T04:53:26.486Z,95114.00
2023-04-30T04:54:26.496Z,95116.00
2023-04-30T04:55:26.535Z,95114.00
2023-04-30T04:56:26.570Z,95116.00
2023-04-30T04:57:26.613Z,95114.00
2023-04-30T04:58:26.594Z,95114.00
2023-04-30T04:59:26.642Z,95114.00
2023-04-30T05:00:26.628Z,95112.00
2023-04-30T05:01:26.665Z,95110.00
2023-04-30T05:02:26.834Z,95112.00
2023-04-30T05:03:26.755Z,95112.00
2023-04-30T05:04:26.773Z,95112.00
2023-04-30T05:05:26.877Z,95112.00
2023-04-30T05:06:26.909Z,95110.00
2023-04-30T05:07:26.866Z,95112.00
2023-04-30T05:08:26.913Z,95112.00
2023-04-30T05:09:26.966Z,95112.00
2023-04-30T05:10:26.965Z,95116.00
2023-04-30T05:11:26.992Z,95114.00
2023-04-30T05:12:27.003Z,95118.00
2023-04-30T05:13:27.057Z,95116.00
2023-04-30T05:14:27.089Z,95116.00
2023-04-30T05:15:27.109Z,95116.00
2023-04-30T05:16:27.172Z,95116.00
2023-04-30T05:17:27.228Z,95118.00
2023-04-30T05:18:27.233Z,95116.00
2023-04-30T05:19:27.216Z,95114.00
2023-04-30T05:20:27.287Z,95116.00
2023-04-30T05:21:27.319Z,95112.00
2023-04-30T05:22:27.364Z,95114.00
2023-04-30T05:23:27.394Z,95112.00
2023-04-30T05:24:27.439Z,95114.00
2023-04-30T05:25:27.441Z,95114.00
2023-04-30T05:26:27.463Z,95116.00
2023-04-30T05:27:27.490Z,95114.00
2023-04-30T05:28:27.514Z,95116.00
2023-04-30T05:29:27.541Z,95116.00
2023-04-30T05:30:27.582Z,95118.00
2023-04-30T05:31:27.648Z,95116.00
2023-04-30T05:32:27.640Z,95114.00
2023-04-30T05:33:27.672Z,95112.00
2023-04-30T05:34:27.710Z,95112.00
2023-04-30T05:35:27.744Z,95112.00
2023-04-30T05:36:27.771Z,95116.00
2023-04-30T05:37:27.812Z,95114.00
2023-04-30T05:38:27.820Z,95116.00
2023-04-30T05:39:27.845Z,95114.00
2023-04-30T05:40:27.868Z,95114.00
2023-04-30T05:41:27.912Z,95116.00
2023-04-30T05:42:27.898Z,95116.00
2023-04-30T05:43:27.930Z,95114.00
2023-04-30T05:44:27.916Z,95116.00
2023-04-30T05:45:27.982Z,95116.00
2023-04-30T05:46:28.033Z,95114.00
2023-04-30T05:47:28.022Z,95112.00
2023-04-30T05:48:28.072Z,95114.00
2023-04-30T05:49:28.088Z,95116.00
2023-04-30T05:50:28.086Z,95114.00
2023-04-30T05:51:28.147Z,95114.00
2023-04-30T05:52:28.143Z,95112.00
2023-04-30T05:53:28.186Z,95118.00
2023-04-30T05:54:28.189Z,95118.00
2023-04-30T05:55:28.226Z,95118.00
2023-04-30T05:56:28.248Z,95118.00
2023-04-30T05:57:28.294Z,95116.00
2023-04-30T05:58:28.306Z,95116.00
2023-04-30T05:59:28.321Z,95116.00
2023-04-30T06:00:28.427Z,95114.00
2023-04-30T06:01:28.385Z,95116.00
2023-04-30T06:02:28.592Z,95122.00
2023-04-30T06:03:28.445Z,95118.00
2023-04-30T06:04:28.517Z,95122.00
2023-04-30T06:05:28.584Z,95120.00
2023-04-30T06:06:28.629Z,95120.00
2023-04-30T06:07:28.597Z,95122.00
2023-04-30T06:08:28.593Z,95122.00
2023-04-30T06:09:28.621Z,95122.00
2023-04-30T06:10:28.669Z,95122.00
2023-04-30T06:11:28.684Z,95124.00
2023-04-30T06:12:28.747Z,95124.00
2023-04-30T06:13:28.765Z,95124.00
2023-04-30T06:14:28.773Z,95126.00
2023-04-30T06:15:28.805Z,95124.00
2023-04-30T06:16:28.864Z,95124.00
2023-04-30T06:17:28.901Z,95122.00
2023-04-30T06:18:28.884Z,95118.00
2023-04-30T06:19:28.896Z,95120.00
2023-04-30T06:20:28.940Z,95118.00
2023-04-30T06:21:28.951Z,95118.00
2023-04-30T06:22:29.011Z,95118.00
2023-04-30T06:23:28.991Z,95118.00
2023-04-30T06:24:29.053Z,95118.00
2023-04-30T06:25:29.047Z,95118.00
2023-04-30T06:26:29.030Z,95122.00
2023-04-30T06:27:29.087Z,95120.00
2023-04-30T06:28:29.151Z,95114.00
2023-04-30T06:29:29.163Z,95118.00
2023-04-30T06:30:29.170Z,95118.00
2023-04-30T06:31:29.207Z,95124.00
2023-04-30T06:32:29.240Z,95124.00
2023-04-30T06:33:29.228Z,95122.00
2023-04-30T06:34:29.278Z,95126.00
2023-04-30T06:35:29.323Z,95124.00
2023-04-30T06:36:29.294Z,95126.00
2023-04-30T06:37:29.286Z,95126.00
2023-04-30T06:38:29.324Z,95126.00
2023-04-30T06:39:29.355Z,95128.00
2023-04-30T06:40:29.364Z,95128.00
2023-04-30T06:41:29.397Z,95126.00
2023-04-30T06:42:29.436Z,95122.00
2023-04-30T06:43:29.461Z,95122.00
2023-04-30T06:44:29.523Z,95126.00
2023-04-30T06:45:29.501Z,95124.00
2023-04-30T06:46:29.552Z,95124.00
2023-04-30T06:47:29.536Z,95124.00
2023-04-30T06:48:29.549Z,95126.00
2023-04-30T06:49:29.560Z,95124.00
2023-04-30T06:50:29.563Z,95126.00
2023-04-30T06:51:29.557Z,95124.00
2023-04-30T06:52:29.583Z,95122.00
2023-04-30T06:53:29.608Z,95122.00
2023-04-30T06:54:29.667Z,95126.00
2023-04-30T06:55:29.646Z,95126.00
2023-04-30T06:56:29.668Z,95124.00
2023-04-30T06:57:29.662Z,95128.00
2023-04-30T06:58:29.704Z,95128.00
2023-04-30T06:59:29.727Z,95126.00
2023-04-30T07:00:29.732Z,95124.00
2023-04-30T07:01:29.789Z,95124.00
2023-04-30T07:02:29.837Z,95120.00
2023-04-30T07:03:29.934Z,95122.00
2023-04-30T07:04:29.827Z,95120.00
2023-04-30T07:05:29.884Z,95126.00
2023-04-30T07:06:29.929Z,95126.00
2023-04-30T07:07:29.892Z,95120.00
2023-04-30T07:08:29.949Z,95118.00
2023-04-30T07:09:29.948Z,95118.00
2023-04-30T07:10:29.964Z,95116.00
2023-04-30T07:11:30.024Z,95118.00
2023-04-30T07:12:30.007Z,95116.00
2023-04-30T07:13:30.052Z,95116.00
2023-04-30T07:14:30.095Z,95114.00
2023-04-30T07:15:30.106Z,95114.00
2023-04-30T07:16:30.200Z,95112.00
2023-04-30T07:17:30.194Z,95114.00
2023-04-30T07:18:30.166Z,95112.00
2023-04-30T07:19:30.223Z,95114.00
2023-04-30T07:20:30.218Z,95112.00
2023-04-30T07:21:30.225Z,95114.00
2023-04-30T07:22:30.241Z,95112.00
2023-04-30T07:23:30.713Z,95114.00
2023-04-30T07:24:30.310Z,95116.00
2023-04-30T07:25:30.351Z,95118.00
2023-04-30T07:26:30.342Z,95118.00
2023-04-30T07:27:30.346Z,95118.00
2023-04-30T07:28:30.399Z,95116.00
2023-04-30T07:29:30.417Z,95116.00
2023-04-30T07:30:30.459Z,95118.00
2023-04-30T07:31:30.531Z,95118.00
2023-04-30T07:32:30.464Z,95116.00
2023-04-30T07:33:30.530Z,95116.00
2023-04-30T07:34:30.543Z,95116.00
2023-04-30T07:35:30.520Z,95112.00
2023-04-30T07:36:30.538Z,95110.00
2023-04-30T07:37:30.565Z,95110.00
2023-04-30T07:38:30.595Z,95112.00
2023-04-30T07:39:30.611Z,95108.00
2023-04-30T07:40:36.328Z,95110.00
2023-04-30T07:41:31.599Z,95110.00
2023-04-30T07:42:30.565Z,95108.00
2023-04-30T07:43:31.815Z,95108.00
2023-04-30T07:44:30.472Z,95110.00
2023-04-30T07:45:30.448Z,95106.00
2023-04-30T07:46:30.497Z,95108.00
2023-04-30T07:47:30.419Z,95110.00
2023-04-30T07:48:30.360Z,95108.00
2023-04-30T07:49:30.312Z,95106.00
2023-04-30T07:50:30.267Z,95106.00
2023-04-30T07:51:30.278Z,95108.00
2023-04-30T07:52:30.296Z,95106.00
2023-04-30T07:53:30.352Z,95110.00
2023-04-30T07:54:30.376Z,95108.00
2023-04-30T07:55:30.423Z,95108.00
2023-04-30T07:56:30.450Z,95108.00
2023-04-30T07:57:30.469Z,95106.00
2023-04-30T07:58:30.466Z,95108.00
2023-04-30T07:59:30.476Z,95108.00
2023-04-30T08:00:30.530Z,95110.00
2023-04-30T08:01:30.537Z,95110.00
2023-04-30T08:02:30.658Z,95110.00
2023-04-30T08:03:30.674Z,95104.00
2023-04-30T08:04:30.659Z,95106.00
2023-04-30T08:05:30.597Z,95104.00
2023-04-30T08:06:30.641Z,95104.00
2023-04-30T08:07:30.599Z,95110.00
2023-04-30T08:08:30.619Z,95108.00
2023-04-30T08:09:30.688Z,95104.00
2023-04-30T08:10:30.682Z,95104.00
2023-04-30T08:11:30.688Z,95106.00
2023-04-30T08:12:30.735Z,95106.00
2023-04-30T08:13:30.700Z,95106.00
2023-04-30T08:14:30.758Z,95106.00
2023-04-30T08:15:30.802Z,95104.00
2023-04-30T08:16:30.803Z,95104.00
2023-04-30T08:17:30.912Z,95104.00
2023-04-30T08:18:30.856Z,95104.00
2023-04-30T08:19:30.841Z,95100.00
2023-04-30T08:20:30.872Z,95098.00
2023-04-30T08:21:30.890Z,95098.00
2023-04-30T08:22:30.905Z,95098.00
2023-04-30T08:23:30.908Z,95098.00
2023-04-30T08:24:30.957Z,95096.00
2023-04-30T08:25:31.047Z,95094.00
2023-04-30T08:26:30.979Z,95092.00
2023-04-30T08:27:30.992Z,95090.00
2023-04-30T08:28:31.028Z,95090.00
2023-04-30T08:29:31.055Z,95092.00
2023-04-30T08:30:31.059Z,95088.00
2023-04-30T08:31:31.100Z,95087.00
2023-04-30T08:32:31.131Z,95088.00
2023-04-30T08:33:31.124Z,95087.00
2023-04-30T08:34:31.171Z,95085.00
2023-04-30T08:35:31.228Z,95083.00
2023-04-30T08:36:31.187Z,95085.00
2023-04-30T08:37:31.189Z,95083.00
2023-04-30T08:38:31.206Z,95085.00
2023-04-30T08:39:31.228Z,95085.00
2023-04-30T08:40:49.487Z,95083.00
2023-04-30T08:41:32.231Z,95087.00
2023-04-30T08:42:31.194Z,95087.00
2023-04-30T08:43:31.143Z,95085.00
2023-04-30T08:44:31.135Z,95085.00
2023-04-30T08:45:31.103Z,95087.00
2023-04-30T08:46:31.137Z,95087.00
2023-04-30T08:47:31.052Z,95085.00
2023-04-30T08:48:31.034Z,95085.00
2023-04-30T08:49:30.976Z,95083.00
2023-04-30T08:50:30.933Z,95087.00
2023-04-30T08:51:30.897Z,95083.00
2023-04-30T08:52:30.908Z,95083.00
2023-04-30T08:53:30.882Z,95085.00
2023-04-30T08:54:30.923Z,95083.00
2023-04-30T08:55:30.933Z,95081.00
2023-04-30T08:56:30.967Z,95079.00
2023-04-30T08:57:30.990Z,95077.00
2023-04-30T08:58:30.999Z,95079.00
2023-04-30T08:59:30.991Z,95075.00
2023-04-30T09:00:31.014Z,95077.00
2023-04-30T09:01:31.124Z,95079.00
2023-04-30T09:02:31.126Z,95075.00
2023-04-30T09:03:31.224Z,95077.00
2023-04-30T09:04:31.116Z,95079.00
2023-04-30T09:05:31.126Z,95077.00
2023-04-30T09:06:31.189Z,95077.00
2023-04-30T09:07:31.189Z,95077.00
2023-04-30T09:08:31.225Z,95077.00
2023-04-30T09:09:31.231Z,95085.00
2023-04-30T09:10:31.209Z,95085.00
2023-04-30T09:11:31.516Z,95083.00
2023-04-30T09:12:31.260Z,95079.00
2023-04-30T09:13:31.281Z,95077.00
2023-04-30T09:14:31.309Z,95077.00
2023-04-30T09:15:31.297Z,95079.00
2023-04-30T09:16:31.568Z,95077.00
2023-04-30T09:17:31.333Z,95075.00
2023-04-30T09:18:31.352Z,95077.00
2023-04-30T09:19:31.417Z,95071.00
2023-04-30T09:20:31.395Z,95071.00
2023-04-30T09:21:31.446Z,95071.00
2023-04-30T09:22:31.459Z,95067.00
2023-04-30T09:23:31.465Z,95065.00
2023-04-30T09:24:31.480Z,95065.00
2023-04-30T09:25:31.483Z,95065.00
2023-04-30T09:26:31.511Z,95061.00
2023-04-30T09:27:31.569Z,95063.00
2023-04-30T09:28:31.569Z,95061.00
2023-04-30T09:29:31.595Z,95061.00
2023-04-30T09:30:31.610Z,95059.00
2023-04-30T09:31:31.663Z,95061.00
2023-04-30T09:32:31.655Z,95055.00
2023-04-30T09:33:31.664Z,95057.00
2023-04-30T09:34:31.672Z,95055.00
2023-04-30T09:35:31.713Z,95053.00
2023-04-30T09:36:31.722Z,95053.00
2023-04-30T09:37:31.726Z,95051.00
2023-04-30T09:38:31.811Z,95055.00
2023-04-30T09:39:31.783Z,95051.00
2023-04-30T09:40:31.798Z,95051.00
2023-04-30T09:41:31.833Z,95045.00
2023-04-30T09:42:31.853Z,95047.00
2023-04-30T09:43:31.878Z,95045.00
2023-04-30T09:44:31.892Z,95043.00
2023-04-30T09:45:33.154Z,95043.00
2023-04-30T09:46:31.953Z,95037.00
2023-04-30T09:47:32.144Z,95039.00
2023-04-30T09:48:31.993Z,95039.00
2023-04-30T09:49:31.946Z,95041.00
2023-04-30T09:50:31.989Z,95035.00
2023-04-30T09:51:32.082Z,95035.00
2023-04-30T09:52:31.981Z,95032.00
2023-04-30T09:53:31.984Z,95032.00
2023-04-30T09:54:32.047Z,95032.00
2023-04-30T09:55:32.032Z,95028.00
2023-04-30T09:56:32.014Z,95030.00
2023-04-30T09:57:32.055Z,95026.00
2023-04-30T09:58:32.078Z,95030.00
2023-04-30T09:59:32.137Z,95026.00
2023-04-30T10:00:32.111Z,95024.00
2023-04-30T10:01:32.080Z,95022.00
2023-04-30T10:02:32.129Z,95018.00
2023-04-30T10:03:32.204Z,95016.00
2023-04-30T10:04:32.139Z,95012.00
2023-04-30T10:05:32.164Z,95014.00
2023-04-30T10:06:32.223Z,95012.00
2023-04-30T10:07:32.181Z,95012.00
2023-04-30T10:08:32.175Z,95012.00
2023-04-30T10:09:32.585Z,95014.00
2023-04-30T10:10:32.200Z,95014.00
2023-04-30T10:11:32.219Z,95010.00
2023-04-30T10:12:32.213Z,95006.00
2023-04-30T10:13:32.209Z,95004.00
2023-04-30T10:14:32.255Z,95002.00
2023-04-30T10:15:32.245Z,95000.00
2023-04-30T10:16:32.278Z,94998.00
2023-04-30T10:17:32.288Z,94994.00
2023-04-30T10:18:32.277Z,94994.00
2023-04-30T10:19:32.302Z,94998.00
2023-04-30T10:20:32.296Z,94992.00
2023-04-30T10:21:32.300Z,94994.00
2023-04-30T10:22:32.316Z,94992.00
2023-04-30T10:23:32.296Z,94992.00
2023-04-30T10:24:32.361Z,94992.00
2023-04-30T10:25:32.318Z,94986.00
2023-04-30T10:26:32.341Z,94986.00
2023-04-30T10:27:32.363Z,94985.00
2023-04-30T10:28:32.384Z,94983.00
2023-04-30T10:29:32.376Z,94981.00
2023-04-30T10:30:32.408Z,94977.00
2023-04-30T10:31:32.416Z,94977.00
2023-04-30T10:32:32.585Z,94973.00
2023-04-30T10:33:32.388Z,94973.00
2023-04-30T10:34:32.404Z,94969.00
2023-04-30T10:35:32.548Z,94973.00
2023-04-30T10:36:32.438Z,94969.00
2023-04-30T10:37:32.404Z,94969.00
2023-04-30T10:38:32.453Z,94971.00
2023-04-30T10:39:32.446Z,94969.00
2023-04-30T10:40:32.432Z,94967.00
2023-04-30T10:41:32.500Z,94967.00
2023-04-30T10:42:32.414Z,94967.00
2023-04-30T10:43:32.458Z,94963.00
2023-04-30T10:44:32.507Z,94963.00
2023-04-30T10:45:32.432Z,94965.00
2023-04-30T10:46:32.515Z,94961.00
2023-04-30T10:47:32.499Z,94959.00
2023-04-30T10:48:32.461Z,94955.00
2023-04-30T10:49:32.471Z,94955.00
2023-04-30T10:50:32.497Z,94955.00
2023-04-30T10:51:32.513Z,94955.00
2023-04-30T10:52:32.512Z,94957.00
2023-04-30T10:53:32.553Z,94955.00
2023-04-30T10:54:32.520Z,94951.00
2023-04-30T10:55:32.578Z,94951.00
2023-04-30T10:56:32.562Z,94945.00
2023-04-30T10:57:32.570Z,94945.00
2023-04-30T10:58:32.603Z,94941.00
2023-04-30T10:59:32.610Z,94938.00
2023-04-30T11:00:32.628Z,94934.00
2023-04-30T11:01:32.765Z,94936.00
2023-04-30T11:02:32.647Z,94932.00
2023-04-30T11:03:32.660Z,94928.00
2023-04-30T11:04:32.662Z,94930.00
2023-04-30T11:05:32.631Z,94928.00
2023-04-30T11:06:32.680Z,94926.00
2023-04-30T11:07:32.684Z,94924.00
2023-04-30T11:08:32.668Z,94922.00
2023-04-30T11:09:32.684Z,94920.00
2023-04-30T11:10:32.680Z,94916.00
2023-04-30T11:11:32.707Z,94920.00
2023-04-30T11:12:32.684Z,94924.00
2023-04-30T11:13:32.714Z,94924.00
2023-04-30T11:14:32.714Z,94918.00
2023-04-30T11:15:32.771Z,94918.00
2023-04-30T11:16:32.785Z,94920.00
2023-04-30T11:17:32.685Z,94916.00
2023-04-30T11:18:32.701Z,94914.00
2023-04-30T11:19:32.692Z,94912.00
2023-04-30T11:20:32.738Z,94910.00
2023-04-30T11:21:32.736Z,94910.00
2023-04-30T11:22:32.729Z,94910.00
2023-04-30T11:24:33.664Z,94912.00
2023-04-30T11:25:32.667Z,94906.00
2023-04-30T11:26:32.597Z,94904.00
2023-04-30T11:27:32.543Z,94900.00
2023-04-30T11:28:32.514Z,94902.00
2023-04-30T11:29:32.529Z,94898.00
2023-04-30T11:30:32.451Z,94898.00
2023-04-30T11:31:32.427Z,94894.00
2023-04-30T11:32:32.459Z,94894.00
2023-04-30T11:33:32.348Z,94892.00
2023-04-30T11:34:32.294Z,94892.00
2023-04-30T11:35:32.272Z,94883.00
2023-04-30T11:36:32.210Z,94885.00
2023-04-30T11:37:32.173Z,94881.00
2023-04-30T11:38:32.198Z,94881.00
2023-04-30T11:39:32.185Z,94885.00
2023-04-30T11:40:32.185Z,94894.00
2023-04-30T11:41:32.210Z,94881.00
2023-04-30T11:42:32.203Z,94885.00
2023-04-30T11:43:32.206Z,94885.00
2023-04-30T11:44:32.214Z,94883.00
2023-04-30T11:45:32.253Z,94883.00